Time;durP1;ratioP1;P1;durP2;ratioP2;P2;SDS_P1;SDS_P2;PMS_P1;PMS_P2;Temp;Humidity;BMP_temperature;BMP_pressure;BME280_temperature;BME280_humidity;BME280_pressure;Samples;Min_cycle;Max_cycle;Signal;HPM_P1;HPM_P2
2023/12/09 00:00:23;;;;;;;8.77;5.43;;;;;;;12.68;100.00;100730.66;10574673;28;20518;-80
2023/12/09 00:05:46;;;;;;;4.53;2.65;;;;;;;12.84;100.00;100726.38;10597048;28;20155;-81
2023/12/09 00:11:08;;;;;;;4.28;3.60;;;;;;;12.50;100.00;100733.19;10602588;27;20430;-80
2023/12/09 00:16:34;;;;;;;5.72;2.80;;;;;;;12.39;100.00;100727.84;10589566;28;20047;-81
2023/12/09 00:21:56;;;;;;;5.57;2.30;;;;;;;12.61;100.00;100744.75;10575849;27;20045;-81
2023/12/09 00:27:19;;;;;;;4.05;2.05;;;;;;;12.62;100.00;100752.72;10588818;27;20088;-78
2023/12/09 00:32:42;;;;;;;4.53;2.70;;;;;;;12.38;100.00;100739.28;10547098;27;20047;-78
2023/12/09 00:38:05;;;;;;;5.30;2.70;;;;;;;12.16;100.00;100734.69;10586781;27;20099;-80
2023/12/09 00:43:28;;;;;;;4.13;2.90;;;;;;;12.21;100.00;100735.59;10593016;27;20089;-80
2023/12/09 00:48:52;;;;;;;4.00;2.83;;;;;;;12.38;100.00;100742.84;10585624;27;20349;-79
2023/12/09 00:54:14;;;;;;;6.82;3.47;;;;;;;12.48;100.00;100757.00;10590400;27;20078;-80
2023/12/09 00:59:37;;;;;;;6.05;3.58;;;;;;;12.42;100.00;100749.03;10570769;27;20097;-79
2023/12/09 01:05:01;;;;;;;8.40;4.13;;;;;;;12.33;100.00;100751.63;10602010;27;20055;-79
2023/12/09 01:10:23;;;;;;;5.95;3.42;;;;;;;12.29;100.00;100749.78;10568436;27;20044;-79
2023/12/09 01:15:45;;;;;;;4.78;4.07;;;;;;;12.10;100.00;100746.13;10591615;27;20058;-78
2023/12/09 01:21:09;;;;;;;7.35;3.35;;;;;;;12.13;100.00;100730.28;10570454;27;20520;-79
2023/12/09 01:26:32;;;;;;;4.32;2.90;;;;;;;12.11;100.00;100736.41;10591221;27;20051;-78
2023/12/09 01:31:54;;;;;;;6.28;3.40;;;;;;;12.46;100.00;100748.19;10575374;27;20136;-78
2023/12/09 01:37:18;;;;;;;6.70;1.65;;;;;;;12.52;100.00;100750.00;10595121;27;20039;-77
2023/12/09 01:42:42;;;;;;;6.53;1.70;;;;;;;12.63;100.00;100754.47;10574459;27;20075;-76
2023/12/09 01:48:05;;;;;;;2.80;1.40;;;;;;;12.61;100.00;100764.16;10535819;28;20145;-77
2023/12/09 01:53:29;;;;;;;4.95;1.42;;;;;;;12.47;100.00;100764.97;10520712;28;20137;-76
2023/12/09 01:58:52;;;;;;;4.35;1.85;;;;;;;12.42;100.00;100771.97;10520886;28;20044;-77
2023/12/09 02:04:16;;;;;;;4.03;1.40;;;;;;;12.44;100.00;100768.47;10534044;28;20059;-77
2023/12/09 02:09:40;;;;;;;2.80;1.27;;;;;;;12.58;100.00;100772.09;10533609;28;20039;-77
2023/12/09 02:15:07;;;;;;;3.15;1.40;;;;;;;12.82;100.00;100774.03;10534375;28;20054;-76
2023/12/09 02:20:30;;;;;;;8.30;1.35;;;;;;;12.96;100.00;100780.31;10534107;28;20078;-77
2023/12/09 02:26:04;;;;;;;3.92;1.60;;;;;;;12.97;100.00;100786.50;10520378;28;20047;-77
2023/12/09 02:31:31;;;;;;;6.82;2.08;;;;;;;12.83;100.00;100773.16;10533416;28;20130;-77
2023/12/09 02:36:54;;;;;;;3.08;1.70;;;;;;;12.65;100.00;100783.63;10533367;28;20069;-77
2023/12/09 02:42:19;;;;;;;2.90;1.70;;;;;;;12.43;100.00;100781.69;10533646;28;20043;-77
2023/12/09 02:47:42;;;;;;;7.45;2.72;;;;;;;12.40;100.00;100765.78;10572988;27;20078;-78
2023/12/09 02:53:04;;;;;;;7.22;2.22;;;;;;;12.42;100.00;100756.97;10563589;27;20120;-77
2023/12/09 02:58:28;;;;;;;4.65;3.00;;;;;;;12.53;100.00;100759.72;10567268;27;20135;-78
2023/12/09 03:03:50;;;;;;;9.05;2.70;;;;;;;12.68;100.00;100755.41;10593146;27;20134;-77
2023/12/09 03:09:13;;;;;;;4.93;3.22;;;;;;;12.73;100.00;100758.94;10570638;27;20069;-78
2023/12/09 03:14:37;;;;;;;4.72;3.08;;;;;;;12.53;100.00;100765.00;10571741;27;20039;-78
2023/12/09 03:20:00;;;;;;;4.75;2.28;;;;;;;12.21;100.00;100762.06;10562573;27;20489;-78
2023/12/09 03:25:22;;;;;;;2.72;1.85;;;;;;;12.30;100.00;100771.00;10585898;27;20044;-78
2023/12/09 03:30:46;;;;;;;2.67;1.90;;;;;;;12.47;100.00;100775.56;10600545;27;20208;-79
2023/12/09 03:36:11;;;;;;;4.78;1.60;;;;;;;12.65;100.00;100776.56;10591919;27;20047;-78
2023/12/09 03:41:33;;;;;;;5.15;1.65;;;;;;;12.52;100.00;100766.78;10578589;27;20103;-78
2023/12/09 03:46:57;;;;;;;3.45;1.90;;;;;;;12.34;100.00;100778.06;10571998;27;20055;-78
2023/12/09 03:52:20;;;;;;;4.90;1.90;;;;;;;12.37;100.00;100799.28;10560688;28;20040;-78
2023/12/09 03:57:43;;;;;;;5.80;1.90;;;;;;;12.22;100.00;100799.16;10555995;28;20055;-79
2023/12/09 04:03:09;;;;;;;6.45;1.48;;;;;;;12.07;100.00;100782.25;10564218;28;20044;-79
2023/12/09 04:08:32;;;;;;;4.43;1.73;;;;;;;12.02;100.00;100802.47;10560992;28;20127;-79
2023/12/09 04:13:54;;;;;;;3.95;1.90;;;;;;;11.98;100.00;100807.75;10563544;28;20060;-79
2023/12/09 04:19:18;;;;;;;1.90;1.40;;;;;;;11.87;100.00;100805.84;10596283;28;20050;-79
2023/12/09 04:24:41;;;;;;;2.50;1.60;;;;;;;11.95;100.00;100814.75;10586393;28;20044;-79
2023/12/09 04:30:04;;;;;;;5.65;1.80;;;;;;;11.95;100.00;100820.03;10561694;28;20098;-80
2023/12/09 04:35:28;;;;;;;4.10;2.00;;;;;;;11.94;100.00;100805.94;10568788;28;20043;-79
2023/12/09 04:40:51;;;;;;;3.85;1.60;;;;;;;11.92;100.00;100812.06;10567285;28;20043;-79
2023/12/09 04:46:14;;;;;;;4.25;1.77;;;;;;;11.93;100.00;100806.81;10558131;28;20101;-79
2023/12/09 04:51:38;;;;;;;4.57;1.73;;;;;;;12.02;100.00;100823.63;10581952;28;20129;-79
2023/12/09 04:57:00;;;;;;;3.13;1.85;;;;;;;12.17;100.00;100822.03;10546540;28;20535;-79
2023/12/09 05:02:23;;;;;;;4.38;1.65;;;;;;;12.53;100.00;100821.50;10584576;28;20055;-79
2023/12/09 05:07:48;;;;;;;4.53;1.60;;;;;;;12.76;100.00;100824.31;10594429;27;20160;-79
2023/12/09 05:13:11;;;;;;;6.13;2.60;;;;;;;13.07;100.00;100817.47;10585040;27;20392;-79
2023/12/09 05:18:34;;;;;;;11.20;2.40;;;;;;;13.01;100.00;100818.31;10605220;27;20047;-79
2023/12/09 05:23:58;;;;;;;2.67;1.45;;;;;;;13.07;100.00;100815.69;10589878;27;20052;-79
2023/12/09 05:29:21;;;;;;;7.38;1.80;;;;;;;13.00;100.00;100824.50;10583061;27;20042;-79
2023/12/09 05:34:44;;;;;;;4.35;1.85;;;;;;;13.01;100.00;100823.63;10571819;27;20546;-79
2023/12/09 05:40:10;;;;;;;6.05;1.42;;;;;;;13.33;100.00;100822.94;10584097;27;20074;-80
2023/12/09 05:45:32;;;;;;;3.75;1.50;;;;;;;13.48;100.00;100821.28;10583772;27;20122;-79
2023/12/09 05:50:55;;;;;;;6.40;1.70;;;;;;;13.80;100.00;100824.03;10566082;27;20098;-79
2023/12/09 05:56:19;;;;;;;2.80;1.33;;;;;;;14.21;100.00;100815.31;10566688;27;20516;-77
2023/12/09 06:01:42;;;;;;;3.92;1.38;;;;;;;14.45;100.00;100825.97;10567297;27;20051;-77
2023/12/09 06:07:04;;;;;;;4.00;1.88;;;;;;;14.40;100.00;100837.50;10582963;27;20100;-77
2023/12/09 06:12:28;;;;;;;4.55;1.25;;;;;;;14.38;100.00;100834.81;10592634;27;20764;-77
2023/12/09 06:17:51;;;;;;;8.10;1.65;;;;;;;14.49;100.00;100842.81;10589178;27;20039;-78
2023/12/09 06:23:13;;;;;;;3.25;1.30;;;;;;;14.68;100.00;100858.78;10572983;27;20370;-78
2023/12/09 06:28:38;;;;;;;4.90;1.45;;;;;;;14.90;100.00;100870.28;10583936;27;20071;-78
2023/12/09 06:34:01;;;;;;;2.97;1.10;;;;;;;15.07;100.00;100870.28;10574535;27;20047;-78
2023/12/09 06:39:23;;;;;;;3.53;1.20;;;;;;;15.26;100.00;100866.69;10571195;27;20378;-76
2023/12/09 06:44:47;;;;;;;3.20;1.77;;;;;;;15.39;100.00;100876.44;10564536;27;20304;-78
2023/12/09 06:50:11;;;;;;;3.25;1.75;;;;;;;15.56;100.00;100871.06;10559702;27;20040;-78
2023/12/09 06:55:33;;;;;;;3.42;1.75;;;;;;;15.70;100.00;100895.88;10572290;27;20044;-79
2023/12/09 07:00:57;;;;;;;5.20;1.73;;;;;;;15.88;100.00;100890.47;10561418;27;20035;-78
2023/12/09 07:06:22;;;;;;;7.45;1.50;;;;;;;15.99;100.00;100900.22;10564308;27;20039;-79
2023/12/09 07:11:58;;;;;;;3.22;1.55;;;;;;;16.01;100.00;100904.66;10566655;27;20051;-82
2023/12/09 07:17:25;;;;;;;4.72;1.17;;;;;;;16.15;100.00;100947.19;10589472;27;20050;-83
2023/12/09 07:22:49;;;;;;;5.72;1.52;;;;;;;16.50;100.00;100942.56;10567240;27;20069;-82
2023/12/09 07:28:11;;;;;;;5.20;1.40;;;;;;;16.94;100.00;100947.63;10578844;27;20044;-82
2023/12/09 07:33:35;;;;;;;5.18;1.20;;;;;;;17.39;100.00;100945.50;10573083;27;20444;-80
2023/12/09 07:38:59;;;;;;;2.75;1.20;;;;;;;17.74;100.00;100962.06;10583539;27;20073;-83
2023/12/09 07:44:22;;;;;;;1.75;1.10;;;;;;;17.88;100.00;100972.63;10575857;27;20051;-80
2023/12/09 07:49:46;;;;;;;3.67;1.15;;;;;;;17.46;100.00;100965.88;10586215;27;20438;-80
2023/12/09 07:55:12;;;;;;;2.28;1.02;;;;;;;17.42;100.00;100967.69;10549774;28;20096;-81
2023/12/09 08:00:35;;;;;;;2.58;1.17;;;;;;;17.78;100.00;100971.84;10558832;28;20039;-81
2023/12/09 08:06:02;;;;;;;2.15;1.10;;;;;;;18.81;100.00;100972.34;10576778;28;20046;-82
2023/12/09 08:11:26;;;;;;;3.45;1.13;;;;;;;19.93;100.00;100972.22;10558880;28;20048;-81
2023/12/09 08:16:49;;;;;;;2.85;1.00;;;;;;;21.07;93.28;100970.63;10534839;28;20035;-83
2023/12/09 08:22:13;;;;;;;1.98;1.20;;;;;;;21.85;83.15;100968.66;10574323;28;20047;-84
2023/12/09 08:27:35;;;;;;;3.72;0.80;;;;;;;23.67;64.11;100967.50;10563039;28;20056;-87
2023/12/09 08:32:58;;;;;;;1.00;0.80;;;;;;;24.06;58.79;100954.41;10563215;27;20051;-86
2023/12/09 08:38:22;;;;;;;1.23;0.80;;;;;;;24.66;53.59;100948.53;10602920;27;20058;-85
2023/12/09 08:43:44;;;;;;;2.55;0.90;;;;;;;24.24;53.66;100953.75;10609298;27;20039;-85
2023/12/09 08:49:07;;;;;;;4.25;1.45;;;;;;;24.10;49.76;100945.25;10601975;27;20039;-80
2023/12/09 08:54:30;;;;;;;2.63;0.85;;;;;;;23.34;52.57;100931.78;10567828;27;20071;-81
2023/12/09 08:59:53;;;;;;;2.47;0.90;;;;;;;23.78;48.83;100922.16;10593757;27;20043;-81
2023/12/09 09:05:16;;;;;;;1.48;1.10;;;;;;;24.31;47.28;100933.69;10595362;27;20043;-81
2023/12/09 09:10:39;;;;;;;1.23;0.90;;;;;;;22.64;49.60;100948.38;10583404;27;20047;-84
2023/12/09 09:16:02;;;;;;;5.55;1.48;;;;;;;21.62;53.77;100944.19;10589846;27;20476;-83
2023/12/09 09:21:24;;;;;;;1.30;0.80;;;;;;;21.12;55.02;100929.38;10600039;27;20051;-83
2023/12/09 09:26:48;;;;;;;1.88;0.77;;;;;;;20.90;55.61;100926.31;10593491;27;20137;-83
2023/12/09 09:32:11;;;;;;;3.03;1.17;;;;;;;21.17;54.51;100922.09;10592200;27;20051;-82
2023/12/09 09:37:34;;;;;;;3.35;0.88;;;;;;;21.07;54.34;100924.09;10573859;27;20097;-83
2023/12/09 09:43:04;;;;;;;2.40;1.20;;;;;;;20.97;55.15;100927.94;10603975;27;20035;-81
2023/12/09 09:48:31;;;;;;;3.28;1.25;;;;;;;21.67;53.03;100923.44;10600175;27;20067;-80
2023/12/09 09:54:06;;;;;;;2.17;1.33;;;;;;;22.14;51.02;100924.81;10590817;27;20108;-80
2023/12/09 09:59:30;;;;;;;1.58;0.90;;;;;;;21.85;51.36;100907.72;10606137;27;20080;-81
2023/12/09 10:04:53;;;;;;;1.77;1.00;;;;;;;21.80;51.90;100898.00;10604584;27;20439;-83
2023/12/09 10:10:16;;;;;;;4.07;1.10;;;;;;;21.84;51.92;100899.69;10605291;27;20031;-82
2023/12/09 10:15:40;;;;;;;2.72;0.80;;;;;;;21.17;54.21;100903.31;10574003;27;20046;-82
2023/12/09 10:21:04;;;;;;;2.45;0.82;;;;;;;21.01;54.89;100900.09;10580707;27;20039;-84
2023/12/09 10:26:27;;;;;;;1.88;0.70;;;;;;;22.37;51.59;100886.50;10592970;27;20051;-83
2023/12/09 10:31:50;;;;;;;1.75;1.02;;;;;;;23.14;46.81;100880.41;10595359;27;20904;-83
2023/12/09 10:37:13;;;;;;;1.45;0.85;;;;;;;22.59;48.89;100871.41;10591669;27;20480;-83
2023/12/09 10:42:38;;;;;;;2.50;1.00;;;;;;;22.69;47.27;100878.28;10602043;27;20047;-83
2023/12/09 10:48:03;;;;;;;2.88;1.00;;;;;;;22.34;48.60;100876.69;10566658;27;20035;-84
2023/12/09 10:53:26;;;;;;;3.63;1.05;;;;;;;22.98;46.32;100871.94;10598649;27;20134;-82
2023/12/09 10:58:51;;;;;;;3.50;1.00;;;;;;;25.33;41.63;100849.38;10579367;27;20043;-85
2023/12/09 11:04:15;;;;;;;2.25;1.00;;;;;;;25.25;41.16;100859.63;10594222;27;20043;-82
2023/12/09 11:09:40;;;;;;;2.85;1.10;;;;;;;26.51;39.11;100844.81;10586240;27;20047;-80
2023/12/09 11:15:08;;;;;;;3.22;1.17;;;;;;;24.46;41.81;100849.41;10602748;27;20134;-80
2023/12/09 11:20:33;;;;;;;1.92;1.20;;;;;;;22.28;44.89;100833.84;10602234;27;20488;-80
2023/12/09 11:25:55;;;;;;;2.45;1.10;;;;;;;21.51;47.86;100844.19;10602183;27;20043;-80
2023/12/09 11:31:18;;;;;;;2.80;1.10;;;;;;;21.30;48.37;100841.19;10585296;27;20046;-80
2023/12/09 11:36:43;;;;;;;2.45;0.95;;;;;;;21.43;48.78;100828.28;10556355;27;20070;-79
2023/12/09 11:42:06;;;;;;;2.42;1.00;;;;;;;20.62;51.01;100829.50;10575751;27;20043;-79
2023/12/09 11:47:30;;;;;;;5.75;1.48;;;;;;;19.81;53.41;100819.75;10578051;27;20048;-78
2023/12/09 11:52:55;;;;;;;1.42;0.88;;;;;;;19.42;56.63;100822.31;10560321;27;20043;-78
2023/12/09 11:58:17;;;;;;;4.35;2.00;;;;;;;19.40;58.03;100805.38;10576487;27;20039;-79
2023/12/09 12:03:40;;;;;;;4.03;0.90;;;;;;;19.81;57.94;100801.88;10588697;28;20036;-80
2023/12/09 12:09:05;;;;;;;2.92;1.13;;;;;;;19.66;57.18;100815.59;10563069;28;20043;-79
2023/12/09 12:14:28;;;;;;;3.45;0.93;;;;;;;18.83;61.44;100811.81;10581234;27;20107;-79
2023/12/09 12:19:51;;;;;;;7.68;1.35;;;;;;;18.26;66.21;100819.81;10604708;27;20061;-81
2023/12/09 12:25:17;;;;;;;2.50;1.05;;;;;;;17.91;68.07;100823.00;10600427;27;20047;-82
2023/12/09 12:30:40;;;;;;;4.15;1.90;;;;;;;17.92;68.14;100827.41;10618987;27;20126;-80
2023/12/09 12:36:03;;;;;;;2.13;1.00;;;;;;;18.08;66.46;100836.13;10562022;27;20771;-80
2023/12/09 12:41:27;;;;;;;4.30;1.02;;;;;;;18.43;64.69;100854.34;10569369;27;20043;-81
2023/12/09 12:46:50;;;;;;;2.85;1.00;;;;;;;18.79;63.29;100874.28;10608971;27;20420;-80
2023/12/09 12:52:13;;;;;;;2.42;1.00;;;;;;;18.88;61.76;100879.50;10584785;27;21010;-81
2023/12/09 12:57:38;;;;;;;3.75;1.40;;;;;;;18.85;61.65;100887.56;10599384;27;20449;-82
2023/12/09 13:03:01;;;;;;;3.85;1.30;;;;;;;18.83;62.38;100898.31;10592534;27;20035;-82
2023/12/09 13:08:23;;;;;;;2.13;1.20;;;;;;;18.76;63.99;100912.69;10583567;27;20439;-82
2023/12/09 13:13:47;;;;;;;1.95;1.20;;;;;;;18.57;65.95;100929.91;10586827;27;20115;-80
2023/12/09 13:19:10;;;;;;;2.92;0.90;;;;;;;18.35;68.71;100949.78;10554774;27;20052;-79
2023/12/09 13:24:32;;;;;;;4.57;1.00;;;;;;;18.22;70.95;100939.25;10589476;27;20104;-82
2023/12/09 13:29:56;;;;;;;4.88;1.27;;;;;;;18.27;73.34;100944.53;10580051;27;20043;-81
2023/12/09 13:35:19;;;;;;;4.22;1.05;;;;;;;18.14;73.45;100948.25;10593619;27;20051;-81
2023/12/09 13:40:46;;;;;;;1.63;1.00;;;;;;;17.94;74.28;100961.84;10591055;27;20043;-82
2023/12/09 13:46:10;;;;;;;3.72;1.15;;;;;;;17.73;74.70;100957.63;10567164;27;20043;-81
2023/12/09 13:51:33;;;;;;;5.35;1.30;;;;;;;17.88;75.19;100972.63;10569945;27;20052;-80
2023/12/09 13:56:56;;;;;;;18.48;10.32;;;;;;;17.88;75.86;100976.16;10596094;27;20126;-80
2023/12/09 14:02:20;;;;;;;2.13;1.88;;;;;;;17.74;76.89;100978.09;10592146;27;20040;-80
2023/12/09 14:07:43;;;;;;;5.03;2.10;;;;;;;17.60;78.27;100977.31;10576735;27;20047;-81
2023/12/09 14:13:05;;;;;;;11.80;5.57;;;;;;;17.51;79.12;100986.31;10596648;27;20062;-79
2023/12/09 14:18:30;;;;;;;11.75;4.28;;;;;;;17.37;80.71;100998.00;10577251;27;20043;-81
2023/12/09 14:23:53;;;;;;;11.95;4.53;;;;;;;17.19;81.42;101004.38;10557209;28;20046;-80
2023/12/09 14:29:15;;;;;;;9.35;4.35;;;;;;;17.08;83.03;101009.78;10590843;27;20043;-81
2023/12/09 14:34:39;;;;;;;4.63;2.80;;;;;;;16.93;84.63;101007.25;10568058;27;20055;-80
2023/12/09 14:40:03;;;;;;;1.58;1.10;;;;;;;16.82;86.24;101018.84;10589430;27;20067;-79
2023/12/09 14:45:26;;;;;;;8.98;4.47;;;;;;;16.77;87.75;101023.31;10603433;27;20403;-78
2023/12/09 14:50:50;;;;;;;7.18;2.83;;;;;;;16.74;90.01;101024.22;10586978;27;20462;-78
2023/12/09 14:56:13;;;;;;;6.72;6.03;;;;;;;16.74;92.02;101030.44;10579256;27;20108;-78
2023/12/09 15:01:35;;;;;;;5.93;2.00;;;;;;;16.63;93.29;101034.94;10552687;27;20043;-77
2023/12/09 15:06:59;;;;;;;6.95;2.28;;;;;;;16.60;95.74;101034.09;10574515;27;20040;-79
2023/12/09 15:12:22;;;;;;;14.40;12.23;;;;;;;16.56;96.28;101046.50;10573229;27;20503;-80
2023/12/09 15:17:45;;;;;;;19.17;13.38;;;;;;;16.45;97.36;101055.44;10541790;27;20070;-78
2023/12/09 15:23:09;;;;;;;4.85;3.40;;;;;;;16.42;98.33;101048.31;10538732;27;20043;-81
2023/12/09 15:28:32;;;;;;;6.07;3.88;;;;;;;16.40;98.24;101065.22;10567579;27;20480;-79
2023/12/09 15:33:54;;;;;;;10.13;4.65;;;;;;;16.37;99.76;101063.44;10564083;27;20142;-79
2023/12/09 15:39:18;;;;;;;2.95;1.90;;;;;;;16.33;100.00;101056.38;10577149;27;20067;-80
2023/12/09 15:44:41;;;;;;;4.90;4.05;;;;;;;16.25;100.00;101071.47;10581896;27;20047;-80
2023/12/09 15:50:04;;;;;;;4.95;2.20;;;;;;;16.19;100.00;101076.81;10574469;28;20054;-79
2023/12/09 15:55:32;;;;;;;5.22;3.38;;;;;;;16.09;100.00;101086.59;10562281;28;20055;-80
2023/12/09 16:00:54;;;;;;;23.23;12.45;;;;;;;15.70;100.00;101095.50;10568197;28;20039;-81
2023/12/09 16:06:18;;;;;;;7.10;5.30;;;;;;;15.49;100.00;101096.34;10561218;28;20060;-81
2023/12/09 16:11:43;;;;;;;7.45;4.78;;;;;;;15.43;100.00;101093.69;10574283;28;20040;-81
2023/12/09 16:17:06;;;;;;;25.33;18.08;;;;;;;15.36;100.00;101097.22;10580600;28;20043;-79
2023/12/09 16:22:29;;;;;;;41.15;24.83;;;;;;;15.35;100.00;101114.09;10558199;28;20170;-79
2023/12/09 16:27:55;;;;;;;38.10;24.15;;;;;;;15.37;100.00;101117.63;10588977;28;20062;-78
2023/12/09 16:33:18;;;;;;;13.93;10.35;;;;;;;14.99;100.00;101125.50;10583277;28;20043;-78
2023/12/09 16:38:40;;;;;;;13.82;10.05;;;;;;;14.83;100.00;101129.00;10585479;28;20043;-78
2023/12/09 16:44:04;;;;;;;18.13;14.60;;;;;;;14.68;100.00;101139.56;10562650;28;20059;-78
2023/12/09 16:49:28;;;;;;;13.63;8.13;;;;;;;14.45;100.00;101143.84;10543976;28;20516;-78
2023/12/09 16:54:50;;;;;;;10.40;7.85;;;;;;;14.39;100.00;101142.03;10558139;28;20047;-78
2023/12/09 17:00:16;;;;;;;5.57;4.03;;;;;;;14.41;100.00;101150.91;10549973;27;20187;-79
2023/12/09 17:05:38;;;;;;;3.97;2.17;;;;;;;14.38;100.00;101144.69;10573592;28;20047;-79
2023/12/09 17:11:02;;;;;;;2.83;1.95;;;;;;;14.30;100.00;101164.13;10565969;28;20054;-79
2023/12/09 17:16:26;;;;;;;2.47;1.40;;;;;;;14.21;100.00;101157.84;10605480;27;20124;-79
2023/12/09 17:21:48;;;;;;;4.93;1.73;;;;;;;14.35;100.00;101157.06;10608197;27;20050;-78
2023/12/09 17:27:11;;;;;;;5.18;1.50;;;;;;;14.53;100.00;101158.97;10599383;27;20130;-77
2023/12/09 17:32:35;;;;;;;1.85;1.40;;;;;;;14.59;100.00;101174.03;10607205;27;20047;-78
2023/12/09 17:37:57;;;;;;;2.88;1.73;;;;;;;14.63;100.00;101170.53;10607192;27;20770;-78
2023/12/09 17:43:20;;;;;;;3.30;1.55;;;;;;;14.66;100.00;101171.44;10572525;27;20048;-79
2023/12/09 17:48:45;;;;;;;4.10;1.65;;;;;;;14.76;100.00;101167.06;10564095;28;20068;-79
2023/12/09 17:54:07;;;;;;;3.38;1.60;;;;;;;14.79;100.00;101174.16;10571025;27;20043;-78
2023/12/09 17:59:30;;;;;;;2.65;1.40;;;;;;;14.91;100.00;101185.72;10591122;27;20043;-79
2023/12/09 18:04:55;;;;;;;3.13;1.67;;;;;;;15.03;100.00;101188.44;10575802;27;20053;-80
2023/12/09 18:10:18;;;;;;;9.85;4.00;;;;;;;15.04;100.00;101190.22;10584882;27;20044;-80
2023/12/09 18:15:42;;;;;;;3.95;2.78;;;;;;;15.07;100.00;101200.88;10550328;28;20050;-79
2023/12/09 18:21:08;;;;;;;7.20;3.50;;;;;;;15.01;100.00;101208.84;10563976;27;20051;-81
2023/12/09 18:26:31;;;;;;;7.28;2.95;;;;;;;15.02;100.00;101215.03;10564153;28;20047;-79
2023/12/09 18:31:54;;;;;;;4.15;3.35;;;;;;;15.07;100.00;101221.25;10570197;27;20054;-80
2023/12/09 18:37:18;;;;;;;3.40;2.30;;;;;;;15.10;100.00;101231.91;10602680;27;20051;-80
2023/12/09 18:42:43;;;;;;;5.43;3.17;;;;;;;15.09;100.00;101231.03;10598455;27;20051;-80
2023/12/09 18:48:06;;;;;;;2.85;1.90;;;;;;;15.18;100.00;101240.81;10594698;27;20134;-80
2023/12/09 18:53:32;;;;;;;3.30;2.30;;;;;;;15.12;100.00;101232.81;10576918;27;20071;-80
2023/12/09 18:58:56;;;;;;;2.63;1.85;;;;;;;15.01;100.00;101227.44;10565768;27;20044;-79
2023/12/09 19:04:21;;;;;;;3.72;2.15;;;;;;;14.95;100.00;101239.81;10574474;27;20066;-81
2023/12/09 19:09:45;;;;;;;5.10;2.30;;;;;;;14.84;100.00;101233.53;10581564;27;20043;-78
2023/12/09 19:15:08;;;;;;;11.43;8.05;;;;;;;14.68;100.00;101233.47;10583392;27;20047;-78
2023/12/09 19:20:31;;;;;;;16.45;7.88;;;;;;;14.47;100.00;101235.97;10577835;27;20069;-78
2023/12/09 19:26:00;;;;;;;18.02;7.72;;;;;;;14.23;100.00;101247.25;10588553;27;20536;-82
2023/12/09 19:31:23;;;;;;;8.80;4.97;;;;;;;14.11;100.00;101240.97;10587259;27;20074;-80
2023/12/09 19:36:46;;;;;;;6.70;3.08;;;;;;;13.96;100.00;101245.25;10585558;27;20492;-83
2023/12/09 19:42:10;;;;;;;5.78;2.03;;;;;;;13.87;100.00;101250.47;10575059;27;20048;-81
2023/12/09 19:47:33;;;;;;;3.15;1.40;;;;;;;13.77;100.00;101264.53;10577605;27;20047;-83
2023/12/09 19:52:56;;;;;;;2.83;1.50;;;;;;;13.97;100.00;101267.38;10575284;27;20047;-80
2023/12/09 19:58:20;;;;;;;3.28;2.63;;;;;;;14.30;100.00;101270.34;10590194;27;20054;-81
2023/12/09 20:03:42;;;;;;;4.55;1.75;;;;;;;14.17;100.00;101278.19;10600576;27;20161;-82
2023/12/09 20:09:05;;;;;;;1.48;1.33;;;;;;;13.96;100.00;101289.47;10596273;28;20067;-83
2023/12/09 20:14:30;;;;;;;2.55;1.40;;;;;;;14.10;100.00;101281.66;10567876;28;20088;-86
2023/12/09 20:19:52;;;;;;;1.75;1.42;;;;;;;14.17;100.00;101302.09;10586764;28;20043;-82
2023/12/09 20:25:15;;;;;;;2.17;1.55;;;;;;;14.15;100.00;101304.72;10594694;27;20092;-82
2023/12/09 20:30:39;;;;;;;2.53;1.70;;;;;;;14.17;100.00;101310.94;10577070;27;20043;-81
2023/12/09 20:36:02;;;;;;;6.00;1.90;;;;;;;14.17;100.00;101321.56;10594554;27;20058;-81
2023/12/09 20:41:33;;;;;;;4.00;1.67;;;;;;;14.02;100.00;101320.50;10593739;27;20520;-80
2023/12/09 20:46:59;;;;;;;6.38;3.88;;;;;;;13.88;100.00;101328.31;10584343;27;20035;-79
2023/12/09 20:52:22;;;;;;;4.38;2.10;;;;;;;14.00;100.00;101330.22;10558043;27;20485;-79
2023/12/09 20:57:44;;;;;;;5.10;1.90;;;;;;;14.17;100.00;101341.91;10588312;27;20071;-79
2023/12/09 21:03:09;;;;;;;4.05;1.88;;;;;;;14.20;100.00;101324.22;10573850;27;20055;-79
2023/12/09 21:08:31;;;;;;;4.40;1.90;;;;;;;14.03;100.00;101330.25;10590496;27;20059;-79
2023/12/09 21:13:54;;;;;;;2.63;1.38;;;;;;;14.07;100.00;101334.72;10593774;27;20059;-78
2023/12/09 21:19:18;;;;;;;3.35;1.80;;;;;;;14.23;100.00;101337.56;10616389;27;20569;-77
2023/12/09 21:24:40;;;;;;;12.45;9.30;;;;;;;14.30;100.00;101339.41;10606266;27;20055;-79
2023/12/09 21:30:04;;;;;;;14.30;8.77;;;;;;;14.31;100.00;101340.25;10573271;27;20151;-79
2023/12/09 21:35:28;;;;;;;4.72;2.75;;;;;;;14.32;100.00;101332.31;10592467;27;20051;-79
2023/12/09 21:40:50;;;;;;;2.25;1.42;;;;;;;14.12;100.00;101338.28;10574160;27;20055;-78
2023/12/09 21:46:14;;;;;;;3.33;1.73;;;;;;;13.67;100.00;101344.88;10605910;27;20072;-79
2023/12/09 21:51:43;;;;;;;4.10;1.48;;;;;;;13.27;100.00;101348.75;10594713;27;20040;-79
2023/12/09 21:57:06;;;;;;;1.42;1.33;;;;;;;13.28;100.00;101347.91;10593995;27;20046;-79
2023/12/09 22:02:28;;;;;;;2.78;1.20;;;;;;;13.22;100.00;101352.22;10565325;27;20555;-79
2023/12/09 22:07:53;;;;;;;2.63;1.95;;;;;;;13.11;100.00;101347.63;10569867;28;20062;-79
2023/12/09 22:13:15;;;;;;;3.70;2.50;;;;;;;13.10;100.00;101332.59;10576114;27;20511;-79
2023/12/09 22:18:38;;;;;;;1.80;1.15;;;;;;;12.78;100.00;101337.41;10592144;27;20426;-79
2023/12/09 22:24:02;;;;;;;1.95;1.20;;;;;;;12.66;100.00;101342.53;10560744;28;20044;-78
2023/12/09 22:29:24;;;;;;;3.25;1.58;;;;;;;12.47;100.00;101324.50;10565449;28;20051;-79
2023/12/09 22:34:47;;;;;;;3.35;1.52;;;;;;;12.22;100.00;101315.25;10552436;27;20075;-80
2023/12/09 22:40:11;;;;;;;2.05;1.30;;;;;;;12.01;100.00;101299.03;10566044;28;20493;-80
2023/12/09 22:45:34;;;;;;;4.35;1.25;;;;;;;11.94;100.00;101303.31;10562512;28;20063;-80
2023/12/09 22:50:57;;;;;;;4.20;1.20;;;;;;;11.89;100.00;101309.34;10584901;27;20054;-80
2023/12/09 22:56:22;;;;;;;2.35;1.38;;;;;;;11.71;100.00;101309.88;10562387;27;20044;-79
2023/12/09 23:01:45;;;;;;;4.53;1.10;;;;;;;11.63;100.00;101303.53;10569561;27;20051;-79
2023/12/09 23:07:07;;;;;;;4.10;1.10;;;;;;;11.67;100.00;101297.47;10549652;27;20047;-80
2023/12/09 23:12:31;;;;;;;2.67;1.60;;;;;;;11.75;100.00;101303.78;10554242;27;20047;-80
2023/12/09 23:17:55;;;;;;;3.72;1.60;;;;;;;11.85;100.00;101289.91;10568642;27;20062;-79
2023/12/09 23:23:18;;;;;;;2.45;1.73;;;;;;;11.75;100.00;101301.16;10584908;27;20112;-79
2023/12/09 23:28:42;;;;;;;1.40;1.25;;;;;;;11.83;100.00;101298.66;10575402;27;20050;-80
2023/12/09 23:34:04;;;;;;;2.50;1.70;;;;;;;11.77;100.00;101295.91;10575489;27;20050;-80
2023/12/09 23:39:27;;;;;;;1.83;1.10;;;;;;;11.71;100.00;101286.06;10549727;28;20047;-79
2023/12/09 23:44:51;;;;;;;3.10;1.20;;;;;;;11.74;100.00;101298.50;10588942;27;20070;-79
2023/12/09 23:50:14;;;;;;;2.03;1.50;;;;;;;11.75;100.00;101295.84;10569437;27;20050;-79
2023/12/09 23:55:36;;;;;;;7.32;3.60;;;;;;;11.95;100.00;101291.84;10546058;28;20051;-79
